Time;durP1;ratioP1;P1;durP2;ratioP2;P2;SDS_P1;SDS_P2;PMS_P1;PMS_P2;Temp;Humidity;BMP_temperature;BMP_pressure;BME280_temperature;BME280_humidity;BME280_pressure;Samples;Min_cycle;Max_cycle;Signal;HPM_P1;HPM_P2
2022/08/05 00:00:21;;;;;;;;;;;564.10;1817.60;;;;;;5070662;28;19927;-56
2022/08/05 00:02:46;;;;;;;;;;;564.10;1792.00;;;;;;5070888;28;19920;-56
2022/08/05 00:05:12;;;;;;;;;;;564.00;1817.60;;;;;;5070872;28;19927;-56
2022/08/05 00:07:37;;;;;;;;;;;564.00;1817.60;;;;;;5070631;28;19995;-54
2022/08/05 00:10:04;;;;;;;;;;;564.00;1817.60;;;;;;5069745;28;19919;-56
2022/08/05 00:12:29;;;;;;;;;;;564.00;1817.60;;;;;;5070355;28;19909;-56
2022/08/05 00:14:55;;;;;;;;;;;564.00;1792.00;;;;;;5070833;28;20012;-56
2022/08/05 00:17:20;;;;;;;;;;;563.90;1792.00;;;;;;5070519;28;20297;-56
2022/08/05 00:19:46;;;;;;;;;;;563.90;1792.00;;;;;;5071034;28;19944;-56
2022/08/05 00:22:11;;;;;;;;;;;563.90;1792.00;;;;;;5070601;28;20353;-56
2022/08/05 00:24:37;;;;;;;;;;;563.90;1792.00;;;;;;5070403;28;19962;-56
2022/08/05 00:27:03;;;;;;;;;;;563.90;1792.00;;;;;;5070597;28;19915;-56
2022/08/05 00:29:28;;;;;;;;;;;563.90;1792.00;;;;;;5070278;28;20309;-56
2022/08/05 00:31:54;;;;;;;;;;;563.90;1817.60;;;;;;5070767;28;20328;-56
2022/08/05 00:34:20;;;;;;;;;;;563.80;1817.60;;;;;;5070352;28;19943;-56
2022/08/05 00:36:45;;;;;;;;;;;563.80;1792.00;;;;;;5070490;28;19920;-56
2022/08/05 00:39:11;;;;;;;;;;;563.80;1817.60;;;;;;5070375;28;19909;-57
2022/08/05 00:41:37;;;;;;;;;;;563.70;1843.20;;;;;;5070503;28;19994;-56
2022/08/05 00:44:03;;;;;;;;;;;563.50;1868.80;;;;;;5070187;28;19926;-56
2022/08/05 00:46:28;;;;;;;;;;;563.40;1894.40;;;;;;5070219;28;19999;-57
2022/08/05 00:48:54;;;;;;;;;;;563.40;1894.40;;;;;;5070633;28;19912;-56
2022/08/05 00:51:20;;;;;;;;;;;563.20;1920.00;;;;;;5072934;28;19909;-56
2022/08/05 00:53:45;;;;;;;;;;;563.20;1920.00;;;;;;5074020;28;19943;-55
2022/08/05 00:56:11;;;;;;;;;;;563.20;1894.40;;;;;;5073580;28;20377;-55
2022/08/05 00:58:37;;;;;;;;;;;563.20;1868.80;;;;;;5073918;28;20209;-55
2022/08/05 01:01:03;;;;;;;;;;;563.20;1843.20;;;;;;5073654;28;19985;-55
2022/08/05 01:03:29;;;;;;;;;;;563.30;1843.20;;;;;;5073718;28;20305;-56
2022/08/05 01:05:54;;;;;;;;;;;563.40;1843.20;;;;;;5073942;28;20009;-55
2022/08/05 01:08:20;;;;;;;;;;;563.30;1843.20;;;;;;5073398;28;19934;-56
2022/08/05 01:10:59;;;;;;;;;;;563.30;1843.20;;;;;;5073708;28;20008;-56
2022/08/05 01:13:35;;;;;;;;;;;563.30;1843.20;;;;;;5073390;28;19912;-56
2022/08/05 01:16:02;;;;;;;;;;;538.50;1843.20;;;;;;5073566;28;19908;-55
2022/08/05 01:18:32;;;;;;;;;;;538.50;1843.20;;;;;;5073275;28;20274;-56
2022/08/05 01:20:57;;;;;;;;;;;538.50;1843.20;;;;;;5073288;28;19915;-56
2022/08/05 01:23:23;;;;;;;;;;;538.50;1843.20;;;;;;5073350;28;19912;-55
2022/08/05 01:25:54;;;;;;;;;;;538.50;1843.20;;;;;;5073166;28;19908;-56
2022/08/05 01:28:31;;;;;;;;;;;538.50;1817.60;;;;;;5073115;28;19908;-56
2022/08/05 01:31:20;;;;;;;;;;;538.50;1817.60;;;;;;5072931;28;19913;-56
2022/08/05 01:33:48;;;;;;;;;;;538.50;1817.60;;;;;;5031129;28;19924;-56
2022/08/05 01:36:15;;;;;;;;;;;538.50;1817.60;;;;;;5031074;28;19998;-55
2022/08/05 01:38:41;;;;;;;;;;;538.50;1843.20;;;;;;5030890;28;19915;-56
2022/08/05 01:41:07;;;;;;;;;;;538.50;1843.20;;;;;;5030788;28;19932;-55
2022/08/05 01:43:34;;;;;;;;;;;538.40;1843.20;;;;;;5030708;28;20359;-55
2022/08/05 01:45:59;;;;;;;;;;;538.40;1868.80;;;;;;5030607;28;19987;-55
2022/08/05 01:48:26;;;;;;;;;;;538.20;1894.40;;;;;;5030985;28;20363;-56
2022/08/05 01:50:52;;;;;;;;;;;538.10;1920.00;;;;;;5030700;28;20279;-56
2022/08/05 01:53:20;;;;;;;;;;;538.00;1920.00;;;;;;5030534;28;19952;-55
2022/08/05 01:55:46;;;;;;;;;;;538.00;1920.00;;;;;;5030770;28;20004;-56
2022/08/05 01:58:12;;;;;;;;;;;538.00;1920.00;;;;;;5030617;28;19959;-56
2022/08/05 02:00:40;;;;;;;;;;;538.00;1920.00;;;;;;5031641;28;19949;-56
2022/08/05 02:03:15;;;;;;;;;;;538.00;1945.60;;;;;;5033007;28;19956;-55
2022/08/05 02:05:42;;;;;;;;;;;538.00;1920.00;;;;;;5033077;28;19963;-55
2022/08/05 02:08:07;;;;;;;;;;;538.00;1920.00;;;;;;5030662;28;19929;-56
2022/08/05 02:10:35;;;;;;;;;;;538.00;1894.40;;;;;;5048718;28;19908;-57
2022/08/05 02:13:03;;;;;;;;;;;538.00;1894.40;;;;;;5072169;28;19908;-57
2022/08/05 02:15:33;;;;;;;;;;;538.00;1894.40;;;;;;5072241;28;19913;-56
2022/08/05 02:18:02;;;;;;;;;;;538.00;1894.40;;;;;;5072315;28;19908;-56
2022/08/05 02:20:30;;;;;;;;;;;538.00;1894.40;;;;;;5072079;28;19909;-56
2022/08/05 02:22:57;;;;;;;;;;;538.00;1920.00;;;;;;5072280;28;19908;-56
2022/08/05 02:25:33;;;;;;;;;;;537.80;1945.60;;;;;;5070560;28;20282;-56
2022/08/05 02:27:59;;;;;;;;;;;537.80;1945.60;;;;;;5071817;28;20357;-56
2022/08/05 02:30:27;;;;;;;;;;;537.90;1971.20;;;;;;5072092;28;20380;-56
2022/08/05 02:32:54;;;;;;;;;;;537.80;1996.80;;;;;;5072052;28;19912;-56
2022/08/05 02:35:22;;;;;;;;;;;537.70;2022.40;;;;;;5071645;28;19975;-56
2022/08/05 02:37:49;;;;;;;;;;;537.60;2022.40;;;;;;5071817;28;19912;-56
2022/08/05 02:40:15;;;;;;;;;;;512.90;1996.80;;;;;;5071851;28;20327;-56
2022/08/05 02:42:41;;;;;;;;;;;512.90;2022.40;;;;;;5071432;28;19916;-56
2022/08/05 02:45:08;;;;;;;;;;;512.90;1996.80;;;;;;5071501;28;20431;-60
2022/08/05 02:47:35;;;;;;;;;;;537.60;2022.40;;;;;;5071784;28;19908;-58
2022/08/05 02:50:01;;;;;;;;;;;512.90;2022.40;;;;;;5071397;28;19908;-56
2022/08/05 02:52:28;;;;;;;;;;;512.80;2022.40;;;;;;5071319;28;19916;-56
2022/08/05 02:54:54;;;;;;;;;;;512.70;2048.00;;;;;;5071560;28;19913;-56
2022/08/05 02:57:21;;;;;;;;;;;512.70;2073.60;;;;;;5071373;28;19909;-55
2022/08/05 02:59:48;;;;;;;;;;;512.80;2073.60;;;;;;5071351;28;20289;-56
2022/08/05 03:02:16;;;;;;;;;;;512.60;2073.60;;;;;;5071489;28;20385;-57
2022/08/05 03:04:42;;;;;;;;;;;512.70;2073.60;;;;;;5071160;28;20377;-55
2022/08/05 03:07:08;;;;;;;;;;;512.60;2099.20;;;;;;5071183;28;19947;-56
2022/08/05 03:09:34;;;;;;;;;;;512.60;2099.20;;;;;;5071348;28;20362;-61
2022/08/05 03:12:00;;;;;;;;;;;512.50;2124.80;;;;;;5071186;28;19999;-56
2022/08/05 03:14:25;;;;;;;;;;;512.60;2099.20;;;;;;5071419;28;19944;-56
2022/08/05 03:16:51;;;;;;;;;;;512.50;2124.80;;;;;;5071216;28;20389;-55
2022/08/05 03:19:16;;;;;;;;;;;512.50;2124.80;;;;;;5071310;28;20031;-56
2022/08/05 03:21:42;;;;;;;;;;;512.50;2124.80;;;;;;5071263;28;19915;-56
2022/08/05 03:24:08;;;;;;;;;;;512.50;2150.40;;;;;;5071269;28;20372;-55
2022/08/05 03:26:33;;;;;;;;;;;512.60;2124.80;;;;;;5071217;28;20058;-56
2022/08/05 03:28:59;;;;;;;;;;;512.60;2124.80;;;;;;5071079;28;19948;-55
2022/08/05 03:31:25;;;;;;;;;;;512.60;2124.80;;;;;;5071106;28;20006;-56
2022/08/05 03:33:51;;;;;;;;;;;512.60;2124.80;;;;;;5070997;28;19913;-56
2022/08/05 03:36:16;;;;;;;;;;;512.60;2150.40;;;;;;5071158;28;20317;-55
2022/08/05 03:38:42;;;;;;;;;;;512.50;2176.00;;;;;;5070934;28;19913;-55
2022/08/05 03:41:08;;;;;;;;;;;512.50;2176.00;;;;;;5071101;28;19915;-56
2022/08/05 03:43:33;;;;;;;;;;;512.50;2201.60;;;;;;5071237;28;19917;-55
2022/08/05 03:45:59;;;;;;;;;;;512.50;2176.00;;;;;;5070718;28;19965;-55
2022/08/05 03:48:26;;;;;;;;;;;512.60;2176.00;;;;;;5071016;28;20007;-55
2022/08/05 03:50:54;;;;;;;;;;;512.60;2201.60;;;;;;5070735;28;19909;-57
2022/08/05 03:53:23;;;;;;;;;;;512.60;2201.60;;;;;;5070720;28;19916;-57
2022/08/05 03:55:56;;;;;;;;;;;512.70;2176.00;;;;;;5070790;28;20397;-56
2022/08/05 03:58:23;;;;;;;;;;;512.70;2201.60;;;;;;5070689;28;19919;-56
2022/08/05 04:00:50;;;;;;;;;;;512.80;2150.40;;;;;;5070471;28;20359;-55
2022/08/05 04:03:17;;;;;;;;;;;512.90;2124.80;;;;;;5070792;28;20001;-56
2022/08/05 04:05:43;;;;;;;;;;;512.90;2176.00;;;;;;5070843;28;19916;-56
2022/08/05 04:08:09;;;;;;;;;;;537.60;2176.00;;;;;;5070527;28;19908;-56
2022/08/05 04:10:35;;;;;;;;;;;512.90;2150.40;;;;;;5070872;28;19916;-56
2022/08/05 04:13:00;;;;;;;;;;;537.70;2150.40;;;;;;5070383;28;19909;-56
2022/08/05 04:15:26;;;;;;;;;;;537.80;2124.80;;;;;;5070947;28;19909;-56
2022/08/05 04:17:52;;;;;;;;;;;537.90;2099.20;;;;;;5070654;28;20417;-55
2022/08/05 04:20:19;;;;;;;;;;;538.00;2099.20;;;;;;5070482;28;19991;-56
2022/08/05 04:22:45;;;;;;;;;;;538.00;2099.20;;;;;;5070689;28;20358;-56
2022/08/05 04:25:11;;;;;;;;;;;538.10;2073.60;;;;;;5071458;28;19962;-56
2022/08/05 04:27:36;;;;;;;;;;;538.20;2048.00;;;;;;5074251;28;19908;-56
2022/08/05 04:30:02;;;;;;;;;;;538.40;2048.00;;;;;;5074073;28;20007;-53
2022/08/05 04:32:28;;;;;;;;;;;538.50;2022.40;;;;;;5073600;28;19916;-55
2022/08/05 04:34:53;;;;;;;;;;;538.50;2022.40;;;;;;5074101;28;19924;-56
2022/08/05 04:37:19;;;;;;;;;;;563.30;2048.00;;;;;;5073996;28;19909;-56
2022/08/05 04:39:44;;;;;;;;;;;563.30;2048.00;;;;;;5074247;28;20373;-56
2022/08/05 04:42:10;;;;;;;;;;;563.30;2048.00;;;;;;5073956;28;19908;-55
2022/08/05 04:44:36;;;;;;;;;;;563.50;2022.40;;;;;;5073834;28;19917;-56
2022/08/05 04:47:01;;;;;;;;;;;563.60;2048.00;;;;;;5073899;28;19909;-56
2022/08/05 04:49:27;;;;;;;;;;;563.70;2022.40;;;;;;5074030;28;20298;-56
2022/08/05 04:51:52;;;;;;;;;;;563.70;2022.40;;;;;;5073984;28;19908;-56
2022/08/05 04:54:18;;;;;;;;;;;564.00;1996.80;;;;;;5073788;28;19916;-56
2022/08/05 04:56:44;;;;;;;;;;;564.10;1996.80;;;;;;5074102;28;19917;-57
2022/08/05 04:59:10;;;;;;;;;;;588.90;1971.20;;;;;;5073701;28;19915;-56
2022/08/05 05:01:36;;;;;;;;;;;589.00;1971.20;;;;;;5073641;28;19966;-56
2022/08/05 05:04:02;;;;;;;;;;;614.70;1920.00;;;;;;5073605;28;19916;-57
2022/08/05 05:06:27;;;;;;;;;;;691.70;1638.40;;;;;;5073780;28;19917;-56
2022/08/05 05:08:53;;;;;;;;;;;742.80;1536.00;;;;;;5073956;28;19913;-56
2022/08/05 05:11:18;;;;;;;;;;;819.40;1382.40;;;;;;5073364;28;19908;-56
2022/08/05 05:13:44;;;;;;;;;;;870.90;1228.80;;;;;;5073448;28;19916;-56
2022/08/05 05:16:10;;;;;;;;;;;921.80;1177.60;;;;;;5073363;28;19908;-56
2022/08/05 05:18:35;;;;;;;;;;;;;;;;;;5073540;28;19959;-55
2022/08/05 05:21:02;;;;;;;;;;;;;;;;;;5073256;28;19908;-55
2022/08/05 05:23:27;;;;;;;;;;;947.70;1075.20;;;;;;5073254;28;19954;-55
2022/08/05 05:25:53;;;;;;;;;;;999.30;972.80;;;;;;5073143;28;20305;-55
2022/08/05 05:28:18;;;;;;;;;;;1024.20;972.80;;;;;;5072993;28;19931;-56
2022/08/05 05:30:44;;;;;;;;;;;;;;;;;;5073075;28;19950;-56
2022/08/05 05:33:10;;;;;;;;;;;1024.90;947.20;;;;;;5072928;28;19973;-56
2022/08/05 05:35:35;;;;;;;;;;;1049.80;972.80;;;;;;5073144;28;19908;-56
2022/08/05 05:38:03;;;;;;;;;;;1050.00;972.80;;;;;;5071685;28;19995;-56
2022/08/05 05:40:29;;;;;;;;;;;1075.30;921.60;;;;;;5073110;28;19935;-57
2022/08/05 05:42:55;;;;;;;;;;;1075.30;947.20;;;;;;5073142;28;20378;-56
2022/08/05 05:45:21;;;;;;;;;;;1075.60;921.60;;;;;;5072794;28;19920;-55
2022/08/05 05:47:47;;;;;;;;;;;1075.70;921.60;;;;;;5072999;28;19947;-56
2022/08/05 05:50:15;;;;;;;;;;;1101.40;896.00;;;;;;5073076;28;19923;-56
2022/08/05 05:52:41;;;;;;;;;;;1101.50;896.00;;;;;;5072573;28;19915;-56
2022/08/05 05:55:08;;;;;;;;;;;1126.40;921.60;;;;;;5072874;28;19908;-57
2022/08/05 05:57:33;;;;;;;;;;;1126.90;870.40;;;;;;5072880;28;19909;-56
2022/08/05 05:59:59;;;;;;;;;;;1127.00;870.40;;;;;;5072585;28;20007;-56
2022/08/05 06:02:25;;;;;;;;;;;1152.50;844.80;;;;;;5073792;28;20350;-60
2022/08/05 06:04:50;;;;;;;;;;;1178.00;819.20;;;;;;5072674;28;19917;-56
2022/08/05 06:07:16;;;;;;;;;;;1177.60;844.80;;;;;;5072749;28;20436;-59
2022/08/05 06:09:41;;;;;;;;;;;1152.70;844.80;;;;;;5072277;28;19931;-65
2022/08/05 06:12:07;;;;;;;;;;;1203.20;819.20;;;;;;5072367;28;19912;-57
2022/08/05 06:14:33;;;;;;;;;;;1204.10;793.60;;;;;;5072548;28;19916;-57
2022/08/05 06:17:00;;;;;;;;;;;1229.30;819.20;;;;;;5072253;28;19909;-59
2022/08/05 06:19:25;;;;;;;;;;;1254.80;793.60;;;;;;5072409;28;20007;-57
2022/08/05 06:21:51;;;;;;;;;;;1255.00;768.00;;;;;;5072010;28;19962;-58
2022/08/05 06:24:17;;;;;;;;;;;1280.00;768.00;;;;;;5072252;28;19919;-63
2022/08/05 06:26:42;;;;;;;;;;;1280.70;742.40;;;;;;5072399;28;19912;-57
2022/08/05 06:29:08;;;;;;;;;;;1280.20;742.40;;;;;;5071764;28;20053;-63
2022/08/05 06:31:34;;;;;;;;;;;1280.40;742.40;;;;;;5072040;28;19924;-58
2022/08/05 06:33:59;;;;;;;;;;;1280.50;742.40;;;;;;5071867;28;20069;-57
2022/08/05 06:36:25;;;;;;;;;;;1305.70;716.80;;;;;;5072173;28;19908;-57
2022/08/05 06:38:53;;;;;;;;;;;1280.70;742.40;;;;;;5071741;28;20394;-57
2022/08/05 06:41:19;;;;;;;;;;;1254.40;793.60;;;;;;5071760;28;19999;-61
2022/08/05 06:43:45;;;;;;;;;;;1255.00;768.00;;;;;;5071644;28;19909;-57
2022/08/05 06:46:10;;;;;;;;;;;1254.80;768.00;;;;;;5071672;28;19915;-57
2022/08/05 06:48:36;;;;;;;;;;;1254.60;768.00;;;;;;5071505;28;20370;-63
2022/08/05 06:51:04;;;;;;;;;;;1280.00;742.40;;;;;;5071505;28;19909;-58
2022/08/05 06:53:30;;;;;;;;;;;1229.50;768.00;;;;;;5071609;28;19915;-57
2022/08/05 06:55:57;;;;;;;;;;;1254.90;768.00;;;;;;5071682;28;20366;-60
2022/08/05 06:58:22;;;;;;;;;;;1254.40;793.60;;;;;;5071572;28;20345;-58
2022/08/05 07:00:48;;;;;;;;;;;1280.40;742.40;;;;;;5071253;28;19964;-65
2022/08/05 07:03:13;;;;;;;;;;;1305.90;691.20;;;;;;5070745;28;19920;-68
2022/08/05 07:05:39;;;;;;;;;;;1280.40;742.40;;;;;;5071359;28;20014;-56
2022/08/05 07:08:05;;;;;;;;;;;1305.90;691.20;;;;;;5071489;28;19908;-65
2022/08/05 07:10:31;;;;;;;;;;;1306.50;665.60;;;;;;5071291;28;19909;-56
2022/08/05 07:18:24;;;;;;;;;;;1280.70;716.80;;;;;;5071587;28;20377;-57
2022/08/05 07:20:50;;;;;;;;;;;1280.70;716.80;;;;;;5071125;28;19908;-57
2022/08/05 07:23:15;;;;;;;;;;;1305.90;691.20;;;;;;5071237;28;20376;-59
2022/08/05 07:25:41;;;;;;;;;;;1305.70;716.80;;;;;;5070903;28;19923;-56
2022/08/05 07:28:07;;;;;;;;;;;1280.40;742.40;;;;;;5071370;28;19947;-58
2022/08/05 07:30:33;;;;;;;;;;;1306.20;691.20;;;;;;5070911;28;19912;-56
2022/08/05 07:33:02;;;;;;;;;;;1305.60;742.40;;;;;;5068635;28;19917;-58
2022/08/05 07:35:28;;;;;;;;;;;1255.30;768.00;;;;;;5068975;28;19908;-58
2022/08/05 07:37:53;;;;;;;;;;;1280.70;742.40;;;;;;5068879;28;20349;-58
2022/08/05 07:40:20;;;;;;;;;;;1280.50;768.00;;;;;;5068767;28;19912;-58
2022/08/05 07:42:46;;;;;;;;;;;1280.00;768.00;;;;;;5068844;28;19917;-57
2022/08/05 07:45:12;;;;;;;;;;;1280.00;768.00;;;;;;5068127;28;19923;-60
2022/08/05 07:47:38;;;;;;;;;;;1280.00;768.00;;;;;;5068825;28;19908;-57
2022/08/05 07:50:04;;;;;;;;;;;1306.50;691.20;;;;;;5068928;28;19916;-58
2022/08/05 07:52:30;;;;;;;;;;;1254.80;793.60;;;;;;5068640;28;20358;-58
2022/08/05 07:54:56;;;;;;;;;;;1229.40;793.60;;;;;;5068802;28;19970;-57
2022/08/05 07:57:21;;;;;;;;;;;1280.50;768.00;;;;;;5068732;28;19948;-57
2022/08/05 07:59:47;;;;;;;;;;;1229.40;819.20;;;;;;5068595;28;19912;-58
2022/08/05 08:02:12;;;;;;;;;;;1229.00;819.20;;;;;;5072939;28;20652;-57
2022/08/05 08:04:38;;;;;;;;;;;1254.90;793.60;;;;;;5072676;28;19908;-59
2022/08/05 08:07:04;;;;;;;;;;;1254.80;793.60;;;;;;5072830;28;19916;-58
2022/08/05 08:09:30;;;;;;;;;;;1254.50;793.60;;;;;;5072671;28;20007;-57
2022/08/05 08:11:55;;;;;;;;;;;1280.40;742.40;;;;;;5073750;28;19999;-67
2022/08/05 08:14:21;;;;;;;;;;;1254.80;768.00;;;;;;5074479;28;19920;-55
2022/08/05 08:16:46;;;;;;;;;;;1280.40;742.40;;;;;;5074562;28;20303;-66
2022/08/05 08:19:12;;;;;;;;;;;1255.00;768.00;;;;;;5074593;28;19909;-68
2022/08/05 08:21:37;;;;;;;;;;;1255.30;768.00;;;;;;5074323;28;19909;-67
2022/08/05 08:24:04;;;;;;;;;;;1280.70;716.80;;;;;;5074473;28;19962;-64
2022/08/05 08:26:30;;;;;;;;;;;1254.90;768.00;;;;;;5074149;28;19908;-57
2022/08/05 08:28:56;;;;;;;;;;;1203.30;793.60;;;;;;5074310;28;19942;-58
2022/08/05 08:31:22;;;;;;;;;;;1228.90;793.60;;;;;;5074198;28;19921;-57
2022/08/05 08:33:48;;;;;;;;;;;1204.10;768.00;;;;;;5074144;28;19917;-56
2022/08/05 08:36:13;;;;;;;;;;;1127.10;819.20;;;;;;5074513;28;19917;-57
2022/08/05 08:38:39;;;;;;;;;;;1075.90;844.80;;;;;;5074032;28;19915;-57
2022/08/05 08:41:08;;;;;;;;;;;1075.20;870.40;;;;;;5074257;28;19915;-59
2022/08/05 08:43:35;;;;;;;;;;;1049.70;896.00;;;;;;5074075;28;19912;-59
2022/08/05 08:46:02;;;;;;;;;;;1024.10;870.40;;;;;;5073832;28;19954;-60
2022/08/05 08:48:28;;;;;;;;;;;999.10;896.00;;;;;;5073853;28;19915;-57
2022/08/05 08:50:53;;;;;;;;;;;998.40;921.60;;;;;;5073998;28;19991;-59
2022/08/05 08:53:20;;;;;;;;;;;973.50;870.40;;;;;;5073728;28;19915;-55
2022/08/05 08:55:46;;;;;;;;;;;973.40;896.00;;;;;;5073806;28;20397;-57
2022/08/05 08:58:13;;;;;;;;;;;973.20;870.40;;;;;;5073656;28;19908;-55
2022/08/05 09:00:40;;;;;;;;;;;973.50;870.40;;;;;;5073547;28;19927;-56
2022/08/05 09:03:06;;;;;;;;;;;972.80;870.40;;;;;;5073847;28;19999;-56
2022/08/05 09:05:31;;;;;;;;;;;972.80;896.00;;;;;;5073525;28;20352;-58
2022/08/05 09:07:57;;;;;;;;;;;947.40;896.00;;;;;;5073581;28;19909;-59
2022/08/05 09:10:23;;;;;;;;;;;947.50;896.00;;;;;;5073612;28;19908;-56
2022/08/05 09:12:48;;;;;;;;;;;947.20;896.00;;;;;;5073652;28;19962;-56
2022/08/05 09:15:14;;;;;;;;;;;947.40;896.00;;;;;;5073517;28;19927;-54
2022/08/05 09:17:40;;;;;;;;;;;947.40;896.00;;;;;;5073377;28;19916;-56
2022/08/05 09:20:05;;;;;;;;;;;922.10;921.60;;;;;;5073794;28;19991;-56
2022/08/05 09:22:49;;;;;;;;;;;922.00;921.60;;;;;;5073288;28;19912;-54
2022/08/05 09:25:17;;;;;;;;;;;921.80;921.60;;;;;;5073473;28;19908;-54
2022/08/05 09:27:43;;;;;;;;;;;922.00;921.60;;;;;;5073527;28;20286;-56
2022/08/05 09:30:09;;;;;;;;;;;922.00;921.60;;;;;;5073247;28;19916;-55
2022/08/05 09:32:36;;;;;;;;;;;922.00;921.60;;;;;;5073242;28;19916;-55
2022/08/05 09:35:08;;;;;;;;;;;922.00;921.60;;;;;;5073033;28;19920;-56
2022/08/05 09:37:34;;;;;;;;;;;921.60;947.20;;;;;;5073113;28;19954;-54
2022/08/05 09:39:59;;;;;;;;;;;921.60;921.60;;;;;;5072984;28;20297;-55
2022/08/05 09:42:27;;;;;;;;;;;922.00;896.00;;;;;;5073391;28;19915;-56
2022/08/05 09:44:53;;;;;;;;;;;922.00;896.00;;;;;;5073114;28;20321;-55
2022/08/05 09:47:20;;;;;;;;;;;921.60;921.60;;;;;;5072657;28;19954;-56
2022/08/05 09:49:46;;;;;;;;;;;921.70;921.60;;;;;;5072860;28;19919;-55
2022/08/05 09:52:18;;;;;;;;;;;921.80;921.60;;;;;;5072656;28;19908;-57
2022/08/05 09:54:50;;;;;;;;;;;921.60;947.20;;;;;;5072988;28;19935;-55
2022/08/05 09:57:31;;;;;;;;;;;896.80;921.60;;;;;;5073036;28;19908;-55
2022/08/05 10:00:03;;;;;;;;;;;896.70;947.20;;;;;;5072424;28;19924;-58
2022/08/05 10:02:36;;;;;;;;;;;896.80;921.60;;;;;;5072585;28;19921;-55
2022/08/05 10:05:03;;;;;;;;;;;896.80;896.00;;;;;;5072654;28;19916;-56
2022/08/05 10:07:42;;;;;;;;;;;921.60;947.20;;;;;;5072669;28;19908;-56
2022/08/05 10:10:07;;;;;;;;;;;921.70;947.20;;;;;;5072796;28;19908;-56
2022/08/05 10:12:38;;;;;;;;;;;921.80;921.60;;;;;;5072641;28;19909;-52
2022/08/05 10:15:21;;;;;;;;;;;921.80;947.20;;;;;;5074159;28;19990;-55
2022/08/05 10:18:05;;;;;;;;;;;921.60;947.20;;;;;;5075333;28;19919;-55
2022/08/05 10:20:31;;;;;;;;;;;896.20;921.60;;;;;;5074611;28;19947;-55
2022/08/05 10:22:57;;;;;;;;;;;896.90;947.20;;;;;;5072077;28;20407;-62
2022/08/05 10:25:23;;;;;;;;;;;921.80;972.80;;;;;;5072311;28;20300;-55
2022/08/05 10:27:49;;;;;;;;;;;922.00;947.20;;;;;;5071615;28;19908;-56
2022/08/05 10:30:14;;;;;;;;;;;922.00;947.20;;;;;;5071638;28;19917;-55
2022/08/05 10:32:40;;;;;;;;;;;921.60;947.20;;;;;;5071208;28;19913;-54
2022/08/05 10:35:06;;;;;;;;;;;921.90;947.20;;;;;;5071489;28;19920;-55
2022/08/05 10:37:32;;;;;;;;;;;922.00;921.60;;;;;;5071388;28;19916;-54
2022/08/05 10:40:00;;;;;;;;;;;922.00;921.60;;;;;;5071367;28;20337;-55
2022/08/05 10:42:26;;;;;;;;;;;921.70;947.20;;;;;;5071457;28;19908;-58
2022/08/05 10:44:54;;;;;;;;;;;921.60;947.20;;;;;;5071157;28;20076;-55
2022/08/05 10:47:20;;;;;;;;;;;921.90;972.80;;;;;;5071517;28;19909;-55
2022/08/05 10:49:59;;;;;;;;;;;896.70;921.60;;;;;;5071492;28;19912;-55
2022/08/05 10:52:42;;;;;;;;;;;896.80;921.60;;;;;;5071409;28;19912;-54
2022/08/05 10:55:12;;;;;;;;;;;896.80;921.60;;;;;;5071060;28;20252;-55
2022/08/05 10:57:40;;;;;;;;;;;896.80;921.60;;;;;;5070919;28;19908;-55
2022/08/05 11:00:11;;;;;;;;;;;896.90;947.20;;;;;;5070754;28;19995;-58
2022/08/05 11:02:37;;;;;;;;;;;921.60;921.60;;;;;;5071128;28;19913;-59
2022/08/05 11:05:08;;;;;;;;;;;896.80;921.60;;;;;;5071166;28;20370;-55
2022/08/05 11:07:33;;;;;;;;;;;896.80;921.60;;;;;;5071128;28;19912;-64
2022/08/05 11:10:01;;;;;;;;;;;896.60;921.60;;;;;;5070700;28;20369;-55
2022/08/05 11:12:37;;;;;;;;;;;896.50;921.60;;;;;;5071079;28;20359;-57
2022/08/05 11:15:07;;;;;;;;;;;896.50;921.60;;;;;;5070951;28;19916;-56
2022/08/05 11:17:36;;;;;;;;;;;896.60;921.60;;;;;;5071097;28;19991;-55
2022/08/05 11:20:02;;;;;;;;;;;896.60;921.60;;;;;;5070698;28;19955;-55
2022/08/05 11:22:38;;;;;;;;;;;896.10;921.60;;;;;;5071043;28;19915;-55
2022/08/05 11:25:22;;;;;;;;;;;896.00;947.20;;;;;;5071537;28;20015;-55
2022/08/05 11:27:48;;;;;;;;;;;896.10;921.60;;;;;;5071019;28;19999;-55
2022/08/05 11:30:13;;;;;;;;;;;896.10;921.60;;;;;;5071069;28;19967;-54
2022/08/05 11:32:39;;;;;;;;;;;896.30;921.60;;;;;;5070987;28;20325;-55
2022/08/05 11:35:05;;;;;;;;;;;896.60;947.20;;;;;;5070119;28;19916;-54
2022/08/05 11:37:40;;;;;;;;;;;896.70;947.20;;;;;;5070984;28;19913;-53
2022/08/05 11:40:06;;;;;;;;;;;896.90;947.20;;;;;;5071333;28;19935;-54
2022/08/05 11:42:35;;;;;;;;;;;896.80;896.00;;;;;;5070966;28;19909;-55
2022/08/05 11:45:05;;;;;;;;;;;896.80;896.00;;;;;;5070773;28;20255;-55
2022/08/05 11:47:31;;;;;;;;;;;896.60;921.60;;;;;;5070889;28;19916;-57
2022/08/05 11:49:57;;;;;;;;;;;896.40;921.60;;;;;;5070891;28;19908;-60
2022/08/05 11:52:27;;;;;;;;;;;896.00;921.60;;;;;;5071243;28;19916;-63
2022/08/05 11:54:53;;;;;;;;;;;896.10;921.60;;;;;;5071032;28;19916;-62
2022/08/05 11:57:18;;;;;;;;;;;896.30;921.60;;;;;;5069496;28;20408;-62
2022/08/05 11:59:44;;;;;;;;;;;896.00;947.20;;;;;;5070650;28;19958;-61
2022/08/05 12:02:10;;;;;;;;;;;896.10;921.60;;;;;;5070736;28;20455;-55
2022/08/05 12:04:43;;;;;;;;;;;896.30;947.20;;;;;;5070861;28;19915;-54
2022/08/05 12:07:09;;;;;;;;;;;896.30;921.60;;;;;;5070511;28;20328;-55
2022/08/05 12:09:36;;;;;;;;;;;896.10;921.60;;;;;;5070920;28;19987;-57
2022/08/05 12:12:03;;;;;;;;;;;896.00;921.60;;;;;;5067674;28;19913;-53
2022/08/05 12:14:39;;;;;;;;;;;896.40;921.60;;;;;;5068344;28;19928;-54
2022/08/05 12:17:12;;;;;;;;;;;896.10;921.60;;;;;;5068606;28;19923;-54
2022/08/05 12:19:45;;;;;;;;;;;896.00;921.60;;;;;;5068814;28;20354;-55
2022/08/05 12:22:12;;;;;;;;;;;896.30;921.60;;;;;;5068415;28;19919;-54
2022/08/05 12:24:44;;;;;;;;;;;896.30;921.60;;;;;;5068176;28;19913;-54
2022/08/05 12:27:17;;;;;;;;;;;896.50;921.60;;;;;;5068353;28;19908;-58
2022/08/05 12:29:43;;;;;;;;;;;896.40;921.60;;;;;;5068345;28;20273;-55
2022/08/05 12:32:09;;;;;;;;;;;896.40;921.60;;;;;;5068313;28;20003;-56
2022/08/05 12:34:35;;;;;;;;;;;896.40;896.00;;;;;;5068661;28;19974;-56
2022/08/05 12:37:10;;;;;;;;;;;896.50;921.60;;;;;;5067887;28;19909;-55
2022/08/05 12:39:39;;;;;;;;;;;896.40;921.60;;;;;;5068460;28;20372;-55
2022/08/05 12:42:12;;;;;;;;;;;896.40;947.20;;;;;;5067049;28;19955;-55
2022/08/05 12:44:38;;;;;;;;;;;896.50;921.60;;;;;;5068230;28;19913;-56
2022/08/05 12:47:04;;;;;;;;;;;896.70;896.00;;;;;;5070949;28;19908;-54
2022/08/05 12:49:43;;;;;;;;;;;896.80;921.60;;;;;;5071432;28;20342;-61
2022/08/05 12:52:13;;;;;;;;;;;896.40;921.60;;;;;;5071751;28;19908;-58
2022/08/05 12:54:39;;;;;;;;;;;896.30;896.00;;;;;;5071712;28;19923;-59
2022/08/05 12:57:05;;;;;;;;;;;896.30;896.00;;;;;;5071496;28;20023;-55
2022/08/05 12:59:31;;;;;;;;;;;896.30;921.60;;;;;;5071573;28;19974;-55
2022/08/05 13:01:59;;;;;;;;;;;896.40;921.60;;;;;;5071617;28;19956;-56
2022/08/05 13:04:25;;;;;;;;;;;896.40;921.60;;;;;;5071471;28;19919;-55
2022/08/05 13:06:51;;;;;;;;;;;896.80;947.20;;;;;;5071434;28;19912;-54
2022/08/05 13:09:17;;;;;;;;;;;896.90;921.60;;;;;;5071734;28;19912;-55
2022/08/05 13:11:43;;;;;;;;;;;896.80;896.00;;;;;;5069784;28;20730;-56
2022/08/05 13:14:09;;;;;;;;;;;896.80;896.00;;;;;;5071144;28;19912;-56
2022/08/05 13:16:43;;;;;;;;;;;896.80;921.60;;;;;;5070869;28;20305;-55
2022/08/05 13:19:11;;;;;;;;;;;896.90;921.60;;;;;;5070922;28;19939;-54
2022/08/05 13:21:36;;;;;;;;;;;896.70;896.00;;;;;;5071090;28;19915;-54
2022/08/05 13:24:02;;;;;;;;;;;896.70;896.00;;;;;;5070977;28;20278;-63
2022/08/05 13:26:29;;;;;;;;;;;896.90;947.20;;;;;;5070884;28;19913;-55
2022/08/05 13:28:54;;;;;;;;;;;896.90;921.60;;;;;;5070706;28;19924;-56
2022/08/05 13:31:20;;;;;;;;;;;896.80;896.00;;;;;;5070477;28;20320;-56
2022/08/05 13:33:46;;;;;;;;;;;896.80;896.00;;;;;;5070698;28;19947;-54
2022/08/05 13:36:12;;;;;;;;;;;896.80;896.00;;;;;;5070412;28;19951;-54
2022/08/05 13:38:38;;;;;;;;;;;896.50;896.00;;;;;;5070260;28;19909;-57
2022/08/05 13:41:03;;;;;;;;;;;896.30;896.00;;;;;;5070725;28;19919;-54
2022/08/05 13:43:29;;;;;;;;;;;896.30;896.00;;;;;;5068527;28;20504;-54
2022/08/05 13:45:55;;;;;;;;;;;896.30;921.60;;;;;;5070417;28;19913;-54
2022/08/05 13:48:20;;;;;;;;;;;896.40;921.60;;;;;;5070333;28;20366;-56
2022/08/05 13:50:46;;;;;;;;;;;896.50;921.60;;;;;;5070598;28;19917;-54